Time;durP1;ratioP1;P1;durP2;ratioP2;P2;SDS_P1;SDS_P2;PMS_P1;PMS_P2;Temp;Humidity;BMP_temperature;BMP_pressure;BME280_temperature;BME280_humidity;BME280_pressure;Samples;Min_cycle;Max_cycle;Signal;HPM_P1;HPM_P2
2022/11/26 00:02:24;;;;;;;42.15;21.27;;;;;;;3.94;89.93;99086.70;1690623;84;25714;-83
2022/11/26 00:04:52;;;;;;;47.48;23.12;;;;;;;3.95;89.87;99082.38;1690499;83;26513;-83
2022/11/26 00:07:24;;;;;;;42.55;17.67;;;;;;;3.98;89.81;99079.68;1690529;84;25670;-83
2022/11/26 00:09:51;;;;;;;44.83;22.62;;;;;;;3.96;89.85;99078.59;1690102;84;25815;-83
2022/11/26 00:12:22;;;;;;;44.48;22.15;;;;;;;3.96;89.71;99077.23;1690502;84;25642;-84
2022/11/26 00:14:48;;;;;;;41.45;20.65;;;;;;;3.96;89.71;99083.18;1690951;84;25595;-84
2022/11/26 00:17:16;;;;;;;44.58;22.30;;;;;;;3.95;89.74;99085.63;1690622;84;25793;-84
2022/11/26 00:19:44;;;;;;;44.93;21.62;;;;;;;3.92;89.79;99088.84;1690809;84;25746;-83
2022/11/26 00:22:30;;;;;;;46.98;23.07;;;;;;;3.85;89.73;99094.48;1690655;84;27439;-82
2022/11/26 00:24:57;;;;;;;44.13;23.22;;;;;;;3.80;89.81;99089.83;1689329;84;25643;-82
2022/11/26 00:27:27;;;;;;;46.02;23.65;;;;;;;3.75;89.94;99099.29;1690604;84;25527;-81
2022/11/26 00:29:54;;;;;;;39.88;18.65;;;;;;;3.71;89.90;99103.04;1690976;84;25675;-81
2022/11/26 00:32:24;;;;;;;39.27;21.20;;;;;;;3.67;90.01;99103.81;1690496;84;25671;-81
2022/11/26 00:34:51;;;;;;;49.27;22.58;;;;;;;3.64;89.82;99105.98;1701997;83;27567;-81
2022/11/26 00:37:28;;;;;;;43.55;22.42;;;;;;;3.62;89.69;99101.87;1718123;83;25694;-81
2022/11/26 00:39:56;;;;;;;41.40;21.02;;;;;;;3.63;89.67;99107.03;1718286;83;25466;-82
2022/11/26 00:42:23;;;;;;;40.85;21.15;;;;;;;3.62;89.45;99104.58;1718359;83;26465;-81
2022/11/26 00:44:49;;;;;;;40.28;20.97;;;;;;;3.60;89.43;99106.75;1718213;83;25452;-81
2022/11/26 00:47:16;;;;;;;42.83;21.45;;;;;;;3.59;89.41;99117.28;1718383;83;28077;-81
2022/11/26 00:49:42;;;;;;;38.73;20.92;;;;;;;3.57;89.36;99112.12;1718336;83;25809;-81
2022/11/26 00:52:25;;;;;;;41.28;20.77;;;;;;;3.60;89.68;99112.96;1718429;83;25617;-82
2022/11/26 00:54:51;;;;;;;36.10;20.17;;;;;;;3.59;89.46;99115.41;1717821;83;25656;-80
2022/11/26 00:57:18;;;;;;;39.92;20.55;;;;;;;3.57;89.49;99117.54;1717917;83;25436;-83
2022/11/26 00:59:44;;;;;;;40.38;20.48;;;;;;;3.56;89.48;99117.80;1718324;83;27497;-82
2022/11/26 01:02:10;;;;;;;42.13;20.72;;;;;;;3.48;89.10;99116.36;1718224;83;25669;-82
2022/11/26 01:04:36;;;;;;;44.40;22.07;;;;;;;3.41;89.39;99118.45;1718208;83;25462;-80
2022/11/26 01:07:02;;;;;;;41.92;21.12;;;;;;;3.33;89.21;99121.08;1718270;83;25774;-82
2022/11/26 01:09:29;;;;;;;41.18;21.68;;;;;;;3.26;89.28;99119.38;1718149;83;25487;-81
2022/11/26 01:11:55;;;;;;;39.58;21.23;;;;;;;3.23;89.49;99119.09;1718320;83;27480;-82
2022/11/26 01:14:22;;;;;;;43.28;22.42;;;;;;;3.22;89.31;99126.39;1717844;83;25690;-81
2022/11/26 01:16:50;;;;;;;44.67;21.33;;;;;;;3.17;89.23;99124.16;1717888;83;25503;-82
2022/11/26 01:19:16;;;;;;;45.35;22.35;;;;;;;3.14;89.20;99130.92;1718272;83;25791;-82
2022/11/26 01:21:43;;;;;;;41.75;21.82;;;;;;;3.10;89.20;99137.36;1718338;83;25426;-82
2022/11/26 01:24:09;;;;;;;43.33;21.20;;;;;;;3.08;89.18;99141.41;1718235;83;27519;-81
2022/11/26 01:26:42;;;;;;;44.90;23.67;;;;;;;3.05;89.07;99133.22;1718100;83;25703;-82
2022/11/26 01:29:17;;;;;;;43.65;23.18;;;;;;;3.07;89.48;99130.27;1718198;83;25609;-80
2022/11/26 01:31:45;;;;;;;46.85;23.60;;;;;;;3.07;89.42;99140.58;1718334;83;25727;-81
2022/11/26 01:34:12;;;;;;;44.05;23.32;;;;;;;3.06;89.38;99136.77;1718287;83;25697;-78
2022/11/26 01:36:40;;;;;;;41.18;21.10;;;;;;;3.05;89.51;99136.48;1718091;83;27340;-81
2022/11/26 01:39:17;;;;;;;45.28;21.80;;;;;;;3.06;89.82;99140.30;1718153;83;25634;-82
2022/11/26 01:42:05;;;;;;;41.77;21.95;;;;;;;3.01;89.51;99139.70;1718093;83;25529;-81
2022/11/26 01:44:35;;;;;;;45.83;23.52;;;;;;;2.98;89.66;99136.66;1717976;83;27848;-82
2022/11/26 01:47:17;;;;;;;43.23;22.32;;;;;;;2.92;89.44;99143.08;1718222;83;25593;-81
2022/11/26 01:50:22;;;;;;;43.73;21.35;;;;;;;2.83;89.42;99147.59;1683500;85;27461;-82
2022/11/26 01:52:49;;;;;;;38.38;18.75;;;;;;;2.72;89.36;99145.27;1683258;85;25899;-79
2022/11/26 01:55:17;;;;;;;41.33;20.50;;;;;;;2.60;89.26;99145.91;1683128;85;25766;-80
2022/11/26 01:57:45;;;;;;;40.52;20.85;;;;;;;2.50;89.31;99155.52;1683421;85;25851;-84
2022/11/26 02:00:13;;;;;;;37.93;20.17;;;;;;;2.49;89.67;99155.23;1683527;85;25302;-84
2022/11/26 02:02:40;;;;;;;47.67;21.90;;;;;;;2.53;89.90;99152.84;1683409;85;27402;-85
2022/11/26 02:05:20;;;;;;;41.10;21.77;;;;;;;2.56;89.91;99158.30;1683385;85;25792;-84
2022/11/26 02:07:47;;;;;;;67.53;30.02;;;;;;;2.59;90.01;99156.45;1683160;85;25482;-85
2022/11/26 02:10:14;;;;;;;58.28;25.45;;;;;;;2.62;89.93;99160.02;1683499;85;25788;-85
2022/11/26 02:12:42;;;;;;;55.10;25.72;;;;;;;2.65;89.95;99161.41;1683646;85;25486;-84
2022/11/26 02:15:11;;;;;;;42.65;21.23;;;;;;;2.71;90.27;99159.05;1683136;85;29596;-83
2022/11/26 02:17:48;;;;;;;36.63;18.98;;;;;;;2.72;89.78;99155.27;1683326;85;25848;-85
2022/11/26 02:20:28;;;;;;;40.80;21.37;;;;;;;2.70;89.80;99154.17;1683103;85;25682;-71
2022/11/26 02:23:21;;;;;;;37.15;19.32;;;;;;;2.67;89.78;99149.25;1682702;85;27825;-81
2022/11/26 02:26:17;;;;;;;37.67;18.42;;;;;;;2.65;89.85;99151.93;1700301;83;25308;-80
2022/11/26 02:29:08;;;;;;;64.75;27.93;;;;;;;2.59;90.07;99158.61;1716905;83;29518;-77
2022/11/26 02:31:48;;;;;;;52.83;24.77;;;;;;;2.56;90.09;99161.02;1717117;83;25788;-87
2022/11/26 02:34:25;;;;;;;50.92;24.82;;;;;;;2.48;89.96;99155.48;1718308;83;25697;-84
2022/11/26 02:37:03;;;;;;;63.23;27.10;;;;;;;2.44;90.17;99159.73;1688606;84;25697;-86
2022/11/26 02:39:30;;;;;;;65.67;29.98;;;;;;;2.39;90.25;99157.80;1690615;84;25730;-86
2022/11/26 02:42:05;;;;;;;50.12;24.70;;;;;;;2.38;90.40;99162.37;1690483;84;27617;-87
2022/11/26 02:44:36;;;;;;;37.30;18.75;;;;;;;2.44;90.59;99163.79;1689881;84;25303;-85
2022/11/26 02:47:10;;;;;;;40.33;20.68;;;;;;;2.50;91.28;99158.22;1690003;84;25714;-77
2022/11/26 02:49:42;;;;;;;57.48;27.02;;;;;;;2.61;91.56;99165.13;1690358;84;25893;-75
2022/11/26 02:52:15;;;;;;;43.20;22.65;;;;;;;2.66;91.01;99162.51;1690451;84;25666;-71
2022/11/26 02:54:50;;;;;;;47.03;23.57;;;;;;;2.65;90.76;99168.17;1690396;84;27607;-76
2022/11/26 02:57:26;;;;;;;43.25;23.38;;;;;;;2.71;90.76;99171.23;1689831;84;26521;-76
2022/11/26 03:00:12;;;;;;;46.70;23.55;;;;;;;2.75;90.72;99170.49;1690182;84;25666;-74
2022/11/26 03:02:51;;;;;;;45.55;22.25;;;;;;;2.86;91.04;99166.56;1690111;84;25784;-87
2022/11/26 03:05:19;;;;;;;46.95;23.62;;;;;;;2.88;90.85;99165.23;1690129;83;25617;-87
2022/11/26 03:07:50;;;;;;;49.65;23.42;;;;;;;2.96;91.13;99165.87;1690123;84;28419;-87
2022/11/26 03:10:19;;;;;;;36.60;18.30;;;;;;;2.97;91.10;99165.62;1690445;84;28135;-87
2022/11/26 03:12:45;;;;;;;67.10;28.12;;;;;;;3.03;91.61;99167.05;1689943;84;25726;-87
2022/11/26 03:15:12;;;;;;;41.02;20.50;;;;;;;3.04;91.44;99161.91;1690346;84;25744;-87
2022/11/26 03:17:38;;;;;;;61.30;27.52;;;;;;;3.03;91.79;99164.34;1690267;84;25437;-83
2022/11/26 03:20:07;;;;;;;65.20;28.07;;;;;;;3.03;91.49;99167.88;1690557;84;27430;-82
2022/11/26 03:22:33;;;;;;;52.25;25.68;;;;;;;3.04;91.36;99169.51;1690318;84;25701;-86
2022/11/26 03:24:59;;;;;;;34.70;19.25;;;;;;;3.02;91.04;99177.05;1690324;84;25532;-84
2022/11/26 03:27:25;;;;;;;39.60;20.02;;;;;;;2.96;90.48;99169.93;1690347;84;25822;-83
2022/11/26 03:29:52;;;;;;;35.38;18.62;;;;;;;2.97;90.87;99166.17;1690394;84;25730;-86
2022/11/26 03:32:18;;;;;;;33.40;18.10;;;;;;;3.00;90.94;99172.44;1690380;84;28169;-83
2022/11/26 03:34:44;;;;;;;40.43;20.50;;;;;;;3.05;90.93;99172.48;1690213;84;25485;-88
2022/11/26 03:37:11;;;;;;;41.77;22.50;;;;;;;3.06;90.32;99171.97;1717826;83;25421;-88
2022/11/26 03:39:37;;;;;;;41.10;22.15;;;;;;;3.04;90.30;99178.16;1718183;83;26591;-88
2022/11/26 03:42:03;;;;;;;33.73;18.52;;;;;;;3.03;90.68;99177.36;1718256;83;25677;-87
2022/11/26 03:44:29;;;;;;;36.10;20.15;;;;;;;2.99;90.11;99182.44;1718160;83;27443;-87
2022/11/26 03:46:56;;;;;;;43.40;21.07;;;;;;;2.95;90.36;99180.48;1718457;83;25277;-87
2022/11/26 03:49:22;;;;;;;38.02;19.17;;;;;;;2.92;90.41;99180.98;1718189;83;25277;-88
2022/11/26 03:51:48;;;;;;;33.70;17.98;;;;;;;2.91;90.69;99175.30;1718366;83;25849;-87
2022/11/26 03:54:15;;;;;;;35.95;19.50;;;;;;;2.92;91.05;99181.81;1718478;83;25685;-87
2022/11/26 03:56:41;;;;;;;38.75;19.70;;;;;;;2.96;90.96;99183.47;1718453;83;28224;-87
2022/11/26 03:59:08;;;;;;;38.60;19.80;;;;;;;3.01;90.98;99183.02;1718156;83;25214;-85
2022/11/26 04:01:34;;;;;;;32.55;19.02;;;;;;;3.05;91.03;99177.91;1718452;83;25471;-87
2022/11/26 04:04:00;;;;;;;30.05;16.55;;;;;;;3.11;91.30;99186.37;1718449;83;25780;-88
2022/11/26 04:06:26;;;;;;;30.17;17.87;;;;;;;3.18;91.42;99188.09;1718451;83;25589;-85
2022/11/26 04:08:53;;;;;;;30.35;15.63;;;;;;;3.23;91.43;99189.52;1718366;83;27426;-84
2022/11/26 04:11:19;;;;;;;31.05;16.87;;;;;;;3.28;91.53;99186.05;1718254;83;25831;-83
2022/11/26 04:13:45;;;;;;;32.28;16.50;;;;;;;3.33;91.74;99194.23;1718196;83;25672;-83
2022/11/26 04:16:11;;;;;;;31.12;15.65;;;;;;;3.37;91.61;99194.83;1718429;83;26358;-82
2022/11/26 04:18:38;;;;;;;28.95;15.28;;;;;;;3.42;91.89;99196.78;1718241;83;25701;-82
2022/11/26 04:21:08;;;;;;;28.27;15.00;;;;;;;3.47;91.95;99198.73;1718345;83;27428;-83
2022/11/26 04:23:35;;;;;;;33.53;16.20;;;;;;;3.50;91.92;99205.83;1718171;83;25648;-81
2022/11/26 04:26:01;;;;;;;28.12;14.87;;;;;;;3.51;91.75;99202.04;1718259;83;25606;-81
2022/11/26 04:28:27;;;;;;;29.00;16.48;;;;;;;3.54;91.73;99206.13;1718305;83;25748;-81
2022/11/26 04:30:54;;;;;;;27.35;15.25;;;;;;;3.54;91.53;99204.77;1718339;83;25646;-81
2022/11/26 04:33:20;;;;;;;33.90;17.70;;;;;;;3.51;91.70;99210.70;1718247;83;27541;-81
2022/11/26 04:35:46;;;;;;;30.65;16.65;;;;;;;3.47;91.42;99213.11;1718352;83;25878;-81
2022/11/26 04:38:13;;;;;;;35.98;18.10;;;;;;;3.44;91.28;99216.33;1718319;83;25645;-78
2022/11/26 04:40:39;;;;;;;28.85;16.62;;;;;;;3.41;91.50;99219.53;1718207;83;25737;-77
2022/11/26 04:43:05;;;;;;;33.40;17.57;;;;;;;3.41;91.60;99222.25;1718283;83;25772;-80
2022/11/26 04:45:32;;;;;;;32.70;19.10;;;;;;;3.43;91.64;99211.98;1718422;83;27467;-80
2022/11/26 04:47:58;;;;;;;31.68;18.02;;;;;;;3.49;91.83;99216.37;1718163;83;25469;-79
2022/11/26 04:50:24;;;;;;;31.97;18.48;;;;;;;3.57;91.79;99218.38;1718413;83;25416;-83
2022/11/26 04:52:51;;;;;;;32.38;17.90;;;;;;;3.62;91.84;99226.02;1718212;83;25704;-82
2022/11/26 04:55:18;;;;;;;32.25;18.37;;;;;;;3.71;91.61;99240.48;1718270;83;25149;-82
2022/11/26 04:57:48;;;;;;;34.78;19.35;;;;;;;3.75;91.46;99231.56;1718240;83;27449;-81
2022/11/26 05:00:17;;;;;;;32.60;16.35;;;;;;;3.78;91.45;99238.39;1718348;83;25385;-80
2022/11/26 05:02:44;;;;;;;34.13;17.90;;;;;;;3.85;91.69;99237.65;1718240;83;25642;-81
2022/11/26 05:05:12;;;;;;;34.23;18.95;;;;;;;3.88;91.48;99242.56;1718173;83;25764;-80
2022/11/26 05:07:39;;;;;;;31.25;18.15;;;;;;;3.90;91.57;99243.67;1718324;83;25593;-79
2022/11/26 05:10:07;;;;;;;219.85;85.90;;;;;;;3.90;91.53;99245.02;1718196;83;28129;-80
2022/11/26 05:12:35;;;;;;;499.15;182.62;;;;;;;3.91;91.52;99245.86;1718214;83;25676;-77
2022/11/26 05:15:01;;;;;;;327.85;103.78;;;;;;;3.89;91.58;99249.62;1717953;83;25431;-80
2022/11/26 05:17:28;;;;;;;366.02;92.53;;;;;;;3.89;91.66;99246.11;1718289;83;25739;-81
2022/11/26 05:19:54;;;;;;;237.25;53.63;;;;;;;3.91;91.71;99241.78;1718229;83;25619;-79
2022/11/26 05:22:20;;;;;;;203.32;48.73;;;;;;;3.92;91.63;99240.70;1718543;83;27366;-81
2022/11/26 05:24:47;;;;;;;156.63;41.28;;;;;;;3.93;91.73;99239.62;1718158;83;25700;-81
2022/11/26 05:27:13;;;;;;;303.37;65.25;;;;;;;3.95;91.89;99249.69;1718175;83;25717;-79
2022/11/26 05:29:39;;;;;;;242.15;54.58;;;;;;;3.98;91.78;99248.65;1718243;83;25800;-81
2022/11/26 05:32:06;;;;;;;264.08;61.98;;;;;;;4.03;91.72;99251.92;1718298;83;25654;-80
2022/11/26 05:34:32;;;;;;;187.75;45.70;;;;;;;4.05;91.68;99252.50;1718288;83;27365;-81
2022/11/26 05:36:58;;;;;;;204.80;49.88;;;;;;;4.07;91.62;99252.24;1717946;83;25895;-80
2022/11/26 05:39:25;;;;;;;199.00;49.33;;;;;;;4.10;91.63;99249.84;1718248;83;25490;-81
2022/11/26 05:41:51;;;;;;;219.43;50.95;;;;;;;4.12;91.57;99260.44;1718230;83;25742;-79
2022/11/26 05:44:17;;;;;;;156.32;43.17;;;;;;;4.16;91.64;99263.45;1718217;83;25436;-81
2022/11/26 05:46:44;;;;;;;97.42;30.85;;;;;;;4.17;91.56;99259.12;1718269;83;27320;-80
2022/11/26 05:49:10;;;;;;;192.85;49.70;;;;;;;4.21;91.58;99267.58;1718057;83;25637;-80
2022/11/26 05:51:36;;;;;;;245.12;59.58;;;;;;;4.24;91.46;99266.53;1718195;83;25483;-78
2022/11/26 05:54:03;;;;;;;122.53;37.05;;;;;;;4.25;91.38;99273.59;1718315;83;26373;-80
2022/11/26 05:56:29;;;;;;;152.62;44.67;;;;;;;4.29;91.35;99274.44;1718128;83;25684;-81
2022/11/26 05:58:55;;;;;;;218.80;57.13;;;;;;;4.32;91.29;99282.86;1718303;83;27374;-81
2022/11/26 06:01:22;;;;;;;121.30;36.73;;;;;;;4.34;91.27;99283.97;1718194;83;25699;-79
2022/11/26 06:03:48;;;;;;;109.05;35.58;;;;;;;4.32;91.23;99284.78;1718269;83;25677;-79
2022/11/26 06:06:14;;;;;;;89.77;30.80;;;;;;;4.32;91.33;99276.64;1718128;83;26276;-80
2022/11/26 06:08:41;;;;;;;111.32;33.48;;;;;;;4.31;91.21;99291.26;1718245;83;25594;-79
2022/11/26 06:11:12;;;;;;;82.55;30.62;;;;;;;4.25;91.26;99289.88;1718172;83;28197;-80
2022/11/26 06:13:38;;;;;;;;;;;;;;;4.26;91.46;99298.28;1720725;83;25658;-76
2022/11/26 06:16:05;;;;;;;106.10;36.20;;;;;;;4.24;91.27;99303.69;1718322;83;25420;-77
2022/11/26 06:18:32;;;;;;;112.88;37.75;;;;;;;4.23;91.44;99304.78;1718161;83;25760;-79
2022/11/26 06:21:03;;;;;;;129.45;41.23;;;;;;;4.24;91.44;99307.23;1718187;83;25602;-79
2022/11/26 06:23:31;;;;;;;90.03;34.10;;;;;;;4.28;91.30;99310.23;1718136;83;27400;-80
2022/11/26 06:25:57;;;;;;;107.55;37.85;;;;;;;4.32;91.39;99307.28;1718068;83;25841;-80
2022/11/26 06:28:23;;;;;;;132.85;42.65;;;;;;;4.37;91.50;99310.06;1718134;83;25625;-80
2022/11/26 06:30:50;;;;;;;150.72;46.63;;;;;;;4.42;91.36;99313.36;1718125;83;25657;-80
2022/11/26 06:33:16;;;;;;;96.75;35.43;;;;;;;4.47;91.43;99316.14;1718130;83;25775;-79
2022/11/26 06:35:43;;;;;;;59.75;25.17;;;;;;;4.50;91.44;99322.41;1718154;83;27432;-82
2022/11/26 06:38:09;;;;;;;61.35;27.13;;;;;;;4.46;91.04;99317.20;1717691;83;25673;-80
2022/11/26 06:40:36;;;;;;;87.85;32.93;;;;;;;4.44;91.19;99320.73;1718257;83;25527;-78
2022/11/26 06:43:02;;;;;;;97.50;34.85;;;;;;;4.45;91.33;99320.16;1718224;83;25770;-80
2022/11/26 06:45:28;;;;;;;59.77;24.87;;;;;;;4.46;91.20;99328.05;1718141;83;25487;-79
2022/11/26 06:47:55;;;;;;;62.73;26.75;;;;;;;4.49;91.20;99332.17;1718147;83;27514;-79
2022/11/26 06:50:22;;;;;;;45.83;22.87;;;;;;;4.52;91.22;99334.38;1718096;83;25817;-79
2022/11/26 06:52:53;;;;;;;55.03;24.70;;;;;;;4.55;91.21;99341.97;1718212;83;25460;-78
2022/11/26 06:55:20;;;;;;;40.38;20.35;;;;;;;4.63;91.52;99335.27;1718160;83;25923;-78
2022/11/26 06:57:50;;;;;;;34.85;20.88;;;;;;;4.67;91.25;99344.55;1718230;83;25577;-79
2022/11/26 07:00:17;;;;;;;32.88;17.95;;;;;;;4.75;91.32;99344.63;1718200;83;27624;-79
2022/11/26 07:02:43;;;;;;;38.85;18.98;;;;;;;4.79;91.39;99347.09;1718051;83;25709;-80
2022/11/26 07:05:09;;;;;;;36.23;19.15;;;;;;;4.80;91.29;99354.16;1718114;83;25454;-81
2022/11/26 07:07:38;;;;;;;40.55;20.20;;;;;;;4.75;91.18;99353.57;1718144;83;25622;-83
2022/11/26 07:10:06;;;;;;;36.95;19.25;;;;;;;4.71;91.05;99355.17;1718092;83;25175;-83
2022/11/26 07:12:32;;;;;;;78.78;28.87;;;;;;;4.70;91.41;99358.14;1718089;83;27626;-84
2022/11/26 07:14:58;;;;;;;57.40;25.15;;;;;;;4.72;91.58;99361.44;1718094;83;25828;-85
2022/11/26 07:17:27;;;;;;;62.27;26.17;;;;;;;4.74;91.62;99363.33;1718220;83;25471;-85
2022/11/26 07:19:53;;;;;;;72.82;29.72;;;;;;;4.82;91.69;99374.27;1718041;83;25758;-88
2022/11/26 07:22:19;;;;;;;72.90;29.48;;;;;;;4.87;91.68;99371.61;1718181;83;25220;-87
2022/11/26 07:24:46;;;;;;;80.35;32.25;;;;;;;4.92;91.60;99376.27;1718279;83;27449;-81
2022/11/26 07:27:12;;;;;;;64.10;27.50;;;;;;;4.99;91.75;99372.27;1718019;83;25488;-82
2022/11/26 07:29:38;;;;;;;66.17;28.70;;;;;;;5.09;91.80;99380.19;1718266;83;25684;-81
2022/11/26 07:32:04;;;;;;;47.60;24.00;;;;;;;5.15;91.67;99382.70;1718008;83;25691;-79
2022/11/26 07:34:31;;;;;;;54.80;24.85;;;;;;;5.24;91.57;99377.59;1718320;83;25411;-77
2022/11/26 07:36:57;;;;;;;57.95;27.30;;;;;;;5.27;91.23;99381.72;1706630;83;27420;-77
2022/11/26 07:39:23;;;;;;;67.40;29.63;;;;;;;5.27;91.06;99381.16;1685425;85;25640;-77
2022/11/26 07:41:50;;;;;;;51.98;25.32;;;;;;;5.22;90.99;99384.37;1685400;85;25524;-75
2022/11/26 07:44:16;;;;;;;63.20;28.47;;;;;;;5.21;91.01;99390.91;1685301;85;25737;-74
2022/11/26 07:46:42;;;;;;;79.03;33.88;;;;;;;5.17;90.99;99393.31;1685513;85;25638;-74
2022/11/26 07:49:09;;;;;;;71.00;32.00;;;;;;;5.11;90.92;99395.17;1685264;85;27335;-75
2022/11/26 07:51:35;;;;;;;56.13;24.35;;;;;;;5.08;91.15;99392.98;1685343;85;25664;-75
2022/11/26 07:54:07;;;;;;;73.40;29.77;;;;;;;5.06;91.28;99395.68;1685182;85;25619;-73
2022/11/26 07:56:34;;;;;;;69.27;29.52;;;;;;;5.07;91.23;99402.19;1685397;85;25602;-73
2022/11/26 07:59:01;;;;;;;48.83;21.95;;;;;;;5.07;91.37;99404.90;1685280;85;25494;-74
2022/11/26 08:01:28;;;;;;;39.40;18.52;;;;;;;5.08;91.24;99403.02;1685314;85;27546;-73
2022/11/26 08:03:56;;;;;;;51.30;24.50;;;;;;;5.05;91.20;99403.00;1685284;85;25679;-74
2022/11/26 08:06:27;;;;;;;32.88;17.42;;;;;;;5.06;91.41;99401.91;1685259;85;25725;-76
2022/11/26 08:09:06;;;;;;;48.13;23.52;;;;;;;5.08;91.41;99406.56;1685711;85;26373;-75
2022/11/26 08:11:37;;;;;;;52.73;24.43;;;;;;;5.10;91.39;99403.58;1685057;85;25704;-74
2022/11/26 08:14:09;;;;;;;56.08;27.52;;;;;;;5.14;91.47;99415.03;1685532;85;27374;-75
2022/11/26 08:16:36;;;;;;;58.30;27.10;;;;;;;5.15;91.45;99415.30;1685289;85;25674;-75
2022/11/26 08:19:11;;;;;;;53.73;26.02;;;;;;;5.19;91.40;99419.70;1685304;85;25697;-75
2022/11/26 08:21:38;;;;;;;50.08;25.08;;;;;;;5.19;91.35;99421.05;1685452;85;25741;-74
2022/11/26 08:24:06;;;;;;;60.88;28.17;;;;;;;5.18;91.57;99423.47;1685074;85;25478;-74
2022/11/26 08:26:33;;;;;;;46.85;25.08;;;;;;;5.18;91.72;99421.31;1685385;85;28224;-72
2022/11/26 08:29:00;;;;;;;59.42;28.70;;;;;;;5.18;91.75;99421.31;1684964;85;25505;-72
2022/11/26 08:31:27;;;;;;;58.75;27.67;;;;;;;5.16;91.78;99422.93;1685381;85;25436;-72
2022/11/26 08:33:58;;;;;;;64.45;30.77;;;;;;;5.14;91.83;99428.63;1685255;85;26641;-73
2022/11/26 08:36:25;;;;;;;;;;;;;;;5.11;92.05;99422.88;1687914;85;25766;-73
2022/11/26 08:38:51;;;;;;;49.33;24.45;;;;;;;5.09;91.96;99424.48;1690343;84;27465;-72
2022/11/26 08:41:17;;;;;;;43.05;21.23;;;;;;;5.09;92.09;99427.20;1690572;84;25734;-72
2022/11/26 08:43:44;;;;;;;40.67;21.27;;;;;;;5.09;92.13;99421.77;1690817;84;25600;-72
2022/11/26 08:46:10;;;;;;;47.85;23.95;;;;;;;5.13;92.19;99426.16;1690574;84;25759;-72
2022/11/26 08:48:37;;;;;;;44.77;22.75;;;;;;;5.17;92.31;99427.28;1690715;84;25674;-76
2022/11/26 08:51:08;;;;;;;43.80;22.40;;;;;;;5.23;92.40;99426.24;1690454;84;28203;-74
2022/11/26 08:53:36;;;;;;;47.00;24.18;;;;;;;5.25;92.08;99428.17;1690774;84;25702;-75
2022/11/26 08:56:07;;;;;;;40.12;22.27;;;;;;;5.27;92.07;99428.72;1690638;84;25673;-75
2022/11/26 08:58:36;;;;;;;51.75;26.35;;;;;;;5.31;92.13;99433.63;1690845;84;25704;-74
2022/11/26 09:01:18;;;;;;;48.73;24.60;;;;;;;5.35;92.22;99436.10;1690775;82;25474;-74
2022/11/26 09:03:48;;;;;;;45.50;23.27;;;;;;;5.42;92.30;99434.53;1690734;84;27516;-76
2022/11/26 09:06:14;;;;;;;39.65;21.15;;;;;;;5.42;92.15;99435.37;1690579;84;25666;-76
2022/11/26 09:09:11;;;;;;;49.45;23.70;;;;;;;5.38;92.14;99443.20;1690853;84;25737;-77
2022/11/26 09:11:11;;;;;;;;;;;;;;;5.39;92.40;99446.76;1689085;84;25739;-77
2022/11/26 09:13:38;;;;;;;40.30;21.48;;;;;;;5.36;92.46;99449.44;1690846;84;25671;-77
2022/11/26 09:16:05;;;;;;;40.38;21.68;;;;;;;5.32;92.53;99446.96;1690837;84;28070;-77
2022/11/26 09:18:31;;;;;;;44.55;24.05;;;;;;;5.36;92.87;99453.52;1690517;84;25659;-74
2022/11/26 09:21:02;;;;;;;51.33;27.32;;;;;;;5.40;92.97;99454.66;1690825;84;25477;-74
2022/11/26 09:23:28;;;;;;;47.88;22.37;;;;;;;5.47;93.19;99454.41;1690760;84;35014;-75
2022/11/26 09:25:55;;;;;;;44.15;23.92;;;;;;;5.57;93.28;99459.66;1690619;84;25682;-75
2022/11/26 09:28:21;;;;;;;44.42;22.27;;;;;;;5.67;93.31;99457.00;1690704;84;27283;-75
2022/11/26 09:30:48;;;;;;;41.35;21.93;;;;;;;5.73;92.94;99461.41;1690694;84;25545;-75
2022/11/26 09:33:14;;;;;;;43.35;22.20;;;;;;;5.80;92.90;99459.83;1690599;84;25500;-75
2022/11/26 09:35:41;;;;;;;41.18;22.07;;;;;;;5.84;92.46;99462.86;1690650;84;25737;-74
2022/11/26 09:38:07;;;;;;;44.23;24.07;;;;;;;5.87;92.23;99456.86;1662777;84;25758;-75
2022/11/26 09:40:42;;;;;;;35.25;17.40;;;;;;;5.87;92.22;99459.05;1649246;87;27394;-75
2022/11/26 09:43:42;;;;;;;39.85;20.02;;;;;;;5.87;92.05;99456.33;1647840;86;25950;-75
2022/11/26 09:46:11;;;;;;;40.00;20.95;;;;;;;5.87;91.89;99460.94;1680648;84;25748;-75
2022/11/26 09:48:39;;;;;;;43.98;22.22;;;;;;;5.81;92.13;99463.38;1682057;85;26750;-75
2022/11/26 09:51:13;;;;;;;39.70;19.67;;;;;;;5.81;92.38;99464.73;1716601;83;25722;-75
2022/11/26 09:53:43;;;;;;;42.90;21.95;;;;;;;5.78;92.27;99460.62;1725483;82;27375;-75
2022/11/26 09:56:18;;;;;;;40.75;20.25;;;;;;;5.77;92.40;99461.18;1692319;83;35353;-75
2022/11/26 09:59:01;;;;;;;44.13;23.57;;;;;;;5.79;92.44;99462.28;1682197;85;25811;-75
2022/11/26 10:01:30;;;;;;;40.45;20.75;;;;;;;5.82;92.47;99462.28;1681451;85;25758;-76
2022/11/26 10:03:58;;;;;;;40.52;21.52;;;;;;;5.85;92.28;99464.48;1682758;85;25740;-75
2022/11/26 10:06:57;;;;;;;51.30;23.45;;;;;;;5.87;92.43;99462.30;1686601;83;27398;-75
2022/11/26 10:10:05;;;;;;;51.02;25.92;;;;;;;5.89;92.52;99458.26;1718276;83;26401;-76
2022/11/26 10:12:56;;;;;;;43.85;22.07;;;;;;;5.95;92.68;99460.98;1699988;83;25677;-75
2022/11/26 10:15:33;;;;;;;;;;;;;;;5.97;92.42;99466.47;1682171;85;25837;-76
2022/11/26 10:18:23;;;;;;;46.45;23.42;;;;;;;5.99;92.30;99465.64;1599590;89;25761;-75
2022/11/26 10:21:20;;;;;;;44.90;23.80;;;;;;;6.05;92.51;99467.08;1600013;89;27401;-75
2022/11/26 10:24:03;;;;;;;43.05;23.47;;;;;;;6.09;92.44;99472.26;1599867;89;25863;-75
2022/11/26 10:26:38;;;;;;;40.50;21.17;;;;;;;6.12;92.47;99469.84;1598775;89;26464;-76
2022/11/26 10:29:26;;;;;;;40.38;20.77;;;;;;;6.11;92.35;99470.94;1599727;89;25912;-75
2022/11/26 10:32:22;;;;;;;43.55;22.50;;;;;;;6.08;92.46;99471.46;1600069;89;25884;-77
2022/11/26 10:34:52;;;;;;;45.78;24.30;;;;;;;6.06;92.56;99474.98;1621991;88;27418;-79
2022/11/26 10:37:22;;;;;;;43.02;21.27;;;;;;;6.08;92.79;99476.08;1628649;87;25802;-78
2022/11/26 10:39:59;;;;;;;40.35;20.45;;;;;;;6.08;92.54;99476.91;1648698;87;25829;-76
2022/11/26 10:42:25;;;;;;;47.70;26.05;;;;;;;6.07;92.55;99480.69;1648754;87;26494;-77
2022/11/26 10:44:52;;;;;;;46.70;24.50;;;;;;;6.09;92.69;99474.45;1648226;87;26520;-79
2022/11/26 10:47:29;;;;;;;42.65;23.47;;;;;;;6.13;92.66;99466.59;1648395;87;28358;-78
2022/11/26 10:50:03;;;;;;;49.67;26.30;;;;;;;6.14;92.60;99469.02;1648723;87;25745;-76
2022/11/26 10:52:33;;;;;;;43.48;24.57;;;;;;;6.17;92.62;99471.78;1633694;87;25825;-77
2022/11/26 10:55:28;;;;;;;42.70;22.13;;;;;;;6.19;92.61;99466.06;1682141;82;25740;-77
2022/11/26 10:58:06;;;;;;;44.18;24.02;;;;;;;6.16;92.57;99470.11;1749638;82;25701;-78
2022/11/26 11:00:52;;;;;;;46.70;25.27;;;;;;;6.16;92.76;99472.84;1746741;82;28256;-78
2022/11/26 11:03:34;;;;;;;47.65;24.40;;;;;;;6.14;92.67;99470.38;1749680;82;25744;-78
2022/11/26 11:06:27;;;;;;;49.45;25.15;;;;;;;6.12;92.67;99472.56;1748387;82;25737;-79
2022/11/26 11:08:53;;;;;;;44.70;23.27;;;;;;;6.16;92.89;99471.48;1689458;83;26278;-78
2022/11/26 11:11:27;;;;;;;42.43;22.45;;;;;;;6.21;92.91;99467.44;1690109;84;25794;-77
2022/11/26 11:13:54;;;;;;;44.55;24.37;;;;;;;6.24;92.73;99464.18;1690394;84;28080;-78
2022/11/26 11:16:46;;;;;;;41.00;21.90;;;;;;;6.24;92.53;99469.63;1690221;84;25843;-77
2022/11/26 11:19:25;;;;;;;34.30;18.60;;;;;;;6.25;92.60;99465.81;1589130;90;26025;-78
2022/11/26 11:21:58;;;;;;;34.50;19.07;;;;;;;6.25;92.57;99467.17;1589253;90;25780;-75
2022/11/26 11:24:27;;;;;;;41.30;21.57;;;;;;;6.27;92.79;99460.93;1589157;90;25841;-77
2022/11/26 11:26:59;;;;;;;37.75;20.65;;;;;;;6.31;92.87;99470.77;1589089;90;26828;-77
2022/11/26 11:29:35;;;;;;;35.70;18.98;;;;;;;6.35;93.06;99470.50;1588728;90;26162;-77
2022/11/26 11:32:06;;;;;;;38.05;19.45;;;;;;;6.34;92.89;99472.95;1589996;90;25852;-77
2022/11/26 11:34:38;;;;;;;39.18;21.82;;;;;;;6.31;92.92;99469.40;1590303;90;25768;-77
2022/11/26 11:37:15;;;;;;;30.88;18.45;;;;;;;6.29;92.98;99468.83;1589915;90;25581;-77
2022/11/26 11:39:42;;;;;;;34.92;18.85;;;;;;;6.31;92.94;99472.66;1589455;90;27420;-77